createdAt,value
2022-08-01T00:00:15.039Z,71.30
2022-08-01T00:01:15.027Z,72.50
2022-08-01T00:02:15.084Z,71.80
2022-08-01T00:03:14.995Z,71.90
2022-08-01T00:04:15.012Z,70.79
2022-08-01T00:05:14.962Z,72.09
2022-08-01T00:06:14.951Z,71.50
2022-08-01T00:07:14.933Z,71.39
2022-08-01T00:08:14.933Z,71.50
2022-08-01T00:09:23.740Z,71.39
2022-08-01T00:10:15.930Z,71.30
2022-08-01T00:11:14.904Z,72.09
2022-08-01T00:12:14.880Z,71.39
2022-08-01T00:13:14.865Z,71.80
2022-08-01T00:14:14.894Z,72.00
2022-08-01T00:15:14.866Z,71.70
2022-08-01T00:16:14.832Z,72.60
2022-08-01T00:17:14.817Z,71.50
2022-08-01T00:18:14.815Z,71.59
2022-08-01T00:19:14.829Z,71.59
2022-08-01T00:20:14.798Z,73.60
2022-08-01T00:21:14.774Z,72.00
2022-08-01T00:22:14.796Z,72.90
2022-08-01T00:23:14.757Z,71.90
2022-08-01T00:24:15.703Z,72.90
2022-08-01T00:25:14.730Z,71.90
2022-08-01T00:26:14.722Z,71.80
2022-08-01T00:27:14.702Z,72.00
2022-08-01T00:28:14.699Z,72.40
2022-08-01T00:30:10.212Z,72.70
2022-08-01T00:30:15.692Z,72.43
2022-08-01T00:31:14.660Z,72.83
2022-08-01T00:32:14.652Z,72.83
2022-08-01T00:33:14.626Z,72.63
2022-08-01T00:34:14.660Z,72.94
2022-08-01T00:35:14.605Z,73.74
2022-08-01T00:36:14.604Z,73.74
2022-08-01T00:37:16.152Z,73.44
2022-08-01T00:38:14.574Z,74.24
2022-08-01T00:39:14.591Z,75.04
2022-08-01T00:40:14.556Z,74.64
2022-08-01T00:41:14.537Z,75.27
2022-08-01T00:42:14.535Z,74.37
2022-08-01T00:43:14.524Z,74.27
2022-08-01T00:44:14.547Z,74.57
2022-08-01T00:45:14.497Z,75.08
2022-08-01T00:46:14.491Z,75.08
2022-08-01T00:47:14.488Z,74.77
2022-08-01T00:48:14.467Z,74.88
2022-08-01T00:49:14.543Z,75.78
2022-08-01T00:50:14.584Z,75.58
2022-08-01T00:51:14.429Z,76.18
2022-08-01T00:52:15.834Z,75.48
2022-08-01T00:53:19.008Z,76.08
2022-08-01T00:54:16.711Z,75.08
2022-08-01T00:55:14.879Z,75.18
2022-08-01T00:56:14.373Z,75.78
2022-08-01T00:57:15.033Z,75.68
2022-08-01T00:58:14.511Z,75.18
2022-08-01T00:59:14.879Z,74.94
2022-08-01T01:00:14.393Z,75.04
2022-08-01T01:01:14.523Z,75.14
2022-08-01T01:02:15.010Z,76.25
2022-08-01T01:03:14.306Z,74.84
2022-08-01T01:04:14.401Z,76.34
2022-08-01T01:05:14.313Z,75.38
2022-08-01T01:06:14.265Z,75.88
2022-08-01T01:07:14.259Z,74.98
2022-08-01T01:08:14.282Z,75.38
2022-08-01T01:09:14.352Z,76.28
2022-08-01T01:10:14.259Z,75.88
2022-08-01T01:11:14.327Z,76.68
2022-08-01T01:12:14.323Z,77.59
2022-08-01T01:13:14.202Z,77.72
2022-08-01T01:14:14.195Z,75.92
2022-08-01T01:15:14.207Z,76.72
2022-08-01T01:16:14.167Z,76.12
2022-08-01T01:17:14.151Z,76.32
2022-08-01T01:18:14.241Z,77.02
2022-08-01T01:19:14.126Z,76.42
2022-08-01T01:20:14.158Z,76.72
2022-08-01T01:21:14.212Z,76.52
2022-08-01T01:22:14.098Z,76.38
2022-08-01T01:23:14.169Z,76.48
2022-08-01T01:24:14.079Z,76.89
2022-08-01T01:25:14.184Z,77.32
2022-08-01T01:26:14.072Z,77.22
2022-08-01T01:27:14.035Z,77.92
2022-08-01T01:28:14.140Z,77.76
2022-08-01T01:29:14.009Z,78.36
2022-08-01T01:30:14.042Z,77.76
2022-08-01T01:31:14.003Z,77.92
2022-08-01T01:32:14.109Z,78.33
2022-08-01T01:33:13.972Z,77.83
2022-08-01T01:34:13.965Z,77.62
2022-08-01T01:35:13.985Z,78.16
2022-08-01T01:36:13.945Z,78.27
2022-08-01T01:37:14.037Z,78.56
2022-08-01T01:38:13.933Z,78.16
2022-08-01T01:39:13.898Z,78.97
2022-08-01T01:40:13.934Z,78.16
2022-08-01T01:41:14.009Z,79.47
2022-08-01T01:42:13.974Z,79.37
2022-08-01T01:43:14.814Z,79.41
2022-08-01T01:44:13.865Z,80.01
2022-08-01T01:45:13.850Z,79.50
2022-08-01T01:46:13.864Z,79.91
2022-08-01T01:47:13.917Z,80.11
2022-08-01T01:48:13.835Z,80.11
2022-08-01T01:49:13.833Z,80.01
2022-08-01T01:50:13.795Z,80.31
2022-08-01T01:51:13.812Z,79.61
2022-08-01T01:52:13.765Z,79.81
2022-08-01T01:53:14.965Z,80.51
2022-08-01T01:54:13.761Z,79.71
2022-08-01T01:55:13.784Z,81.32
2022-08-01T01:56:13.766Z,80.41
2022-08-01T01:57:13.734Z,80.61
2022-08-01T01:58:13.725Z,80.41
2022-08-01T01:59:13.691Z,80.55
2022-08-01T02:00:13.709Z,80.45
2022-08-01T02:01:14.783Z,80.85
2022-08-01T02:02:14.008Z,81.15
2022-08-01T02:03:13.645Z,81.85
2022-08-01T02:04:13.653Z,81.65
2022-08-01T02:05:13.648Z,81.76
2022-08-01T02:06:13.668Z,82.06
2022-08-01T02:07:13.620Z,82.76
2022-08-01T02:08:13.597Z,81.85
2022-08-01T02:09:13.578Z,81.15
2022-08-01T02:10:13.569Z,82.46
2022-08-01T02:11:13.591Z,81.26
2022-08-01T02:12:14.089Z,81.96
2022-08-01T02:13:13.535Z,81.65
2022-08-01T02:14:13.534Z,80.81
2022-08-01T02:15:13.507Z,80.51
2022-08-01T02:16:13.539Z,79.61
2022-08-01T02:17:13.494Z,80.27
2022-08-01T02:18:13.485Z,79.67
2022-08-01T02:19:13.464Z,79.97
2022-08-01T02:20:13.455Z,79.97
2022-08-01T02:21:13.480Z,79.57
2022-08-01T02:22:13.450Z,79.37
2022-08-01T02:23:13.442Z,78.86
2022-08-01T02:24:13.421Z,79.67
2022-08-01T02:25:13.407Z,79.87
2022-08-01T02:26:13.435Z,80.47
2022-08-01T02:27:13.387Z,79.37
2022-08-01T02:28:13.381Z,79.37
2022-08-01T02:29:13.359Z,79.37
2022-08-01T02:30:13.355Z,79.67
2022-08-01T02:31:13.336Z,79.17
2022-08-01T02:32:13.356Z,79.37
2022-08-01T02:33:15.780Z,79.17
2022-08-01T02:34:13.334Z,78.93
2022-08-01T02:35:13.288Z,79.33
2022-08-01T02:36:30.124Z,78.73
2022-08-01T02:37:14.295Z,79.13
2022-08-01T02:38:13.261Z,79.47
2022-08-01T02:39:13.259Z,79.27
2022-08-01T02:40:14.326Z,79.57
2022-08-01T02:41:13.256Z,79.47
2022-08-01T02:42:13.259Z,80.47
2022-08-01T02:43:13.198Z,79.47
2022-08-01T02:44:13.202Z,79.27
2022-08-01T02:45:13.215Z,79.67
2022-08-01T02:46:13.206Z,80.07
2022-08-01T02:47:13.197Z,79.67
2022-08-01T02:48:13.155Z,79.77
2022-08-01T02:49:13.213Z,79.17
2022-08-01T02:50:13.147Z,79.17
2022-08-01T02:51:13.128Z,80.07
2022-08-01T02:52:13.134Z,79.37
2022-08-01T02:53:13.095Z,79.17
2022-08-01T02:54:13.105Z,79.67
2022-08-01T02:55:13.098Z,79.17
2022-08-01T02:56:13.092Z,79.57
2022-08-01T02:57:13.976Z,79.33
2022-08-01T02:58:13.072Z,79.13
2022-08-01T02:59:13.042Z,78.73
2022-08-01T03:00:13.022Z,79.73
2022-08-01T03:01:13.064Z,79.77
2022-08-01T03:02:13.038Z,78.86
2022-08-01T03:03:13.005Z,79.43
2022-08-01T03:04:12.975Z,79.77
2022-08-01T03:05:12.959Z,79.13
2022-08-01T03:06:12.963Z,79.43
2022-08-01T03:07:12.973Z,79.63
2022-08-01T03:08:14.692Z,79.27
2022-08-01T03:09:12.939Z,79.27
2022-08-01T03:10:12.918Z,78.86
2022-08-01T03:11:12.922Z,79.37
2022-08-01T03:12:12.936Z,79.13
2022-08-01T03:13:12.893Z,79.13
2022-08-01T03:14:12.879Z,79.43
2022-08-01T03:15:12.858Z,79.53
2022-08-01T03:16:12.856Z,79.06
2022-08-01T03:17:12.878Z,79.27
2022-08-01T03:18:12.859Z,79.37
2022-08-01T03:19:12.820Z,79.67
2022-08-01T03:20:12.821Z,80.47
2022-08-01T03:21:12.801Z,79.97
2022-08-01T03:22:12.801Z,79.37
2022-08-01T03:23:12.830Z,80.37
2022-08-01T03:24:12.786Z,80.68
2022-08-01T03:25:12.746Z,80.77
2022-08-01T03:26:12.748Z,80.71
2022-08-01T03:27:12.736Z,81.41
2022-08-01T03:28:12.787Z,81.62
2022-08-01T03:29:12.711Z,82.52
2022-08-01T03:30:12.718Z,82.42
2022-08-01T03:31:12.687Z,83.23
2022-08-01T03:32:12.728Z,83.57
2022-08-01T03:33:14.423Z,82.46
2022-08-01T03:34:12.669Z,82.16
2022-08-01T03:35:12.648Z,82.76
2022-08-01T03:36:12.740Z,81.96
2022-08-01T03:37:12.658Z,83.76
2022-08-01T03:38:16.144Z,83.37
2022-08-01T03:39:12.606Z,82.86
2022-08-01T03:40:12.605Z,83.17
2022-08-01T03:41:12.610Z,82.97
2022-08-01T03:42:12.654Z,83.87
2022-08-01T03:43:12.694Z,84.97
2022-08-01T03:44:12.559Z,83.26
2022-08-01T03:45:13.385Z,83.26
2022-08-01T03:46:12.517Z,82.26
2022-08-01T03:47:12.616Z,82.76
2022-08-01T03:48:12.661Z,83.57
2022-08-01T03:49:12.541Z,84.07
2022-08-01T03:50:12.724Z,83.67
2022-08-01T03:51:12.467Z,83.40
2022-08-01T03:52:12.456Z,83.71
2022-08-01T03:53:12.481Z,84.21
2022-08-01T03:54:12.531Z,83.51
2022-08-01T03:55:12.530Z,83.51
2022-08-01T03:56:12.425Z,83.31
2022-08-01T03:57:35.667Z,83.31
2022-08-01T03:58:13.421Z,84.51
2022-08-01T03:59:12.403Z,84.11
2022-08-01T04:00:12.387Z,84.61
2022-08-01T04:01:15.872Z,84.65
2022-08-01T04:02:12.348Z,84.75
2022-08-01T04:03:12.396Z,85.05
2022-08-01T04:04:12.341Z,84.95
2022-08-01T04:05:12.327Z,84.45
2022-08-01T04:06:12.417Z,84.85
2022-08-01T04:07:12.406Z,85.50
2022-08-01T04:08:12.422Z,84.89
2022-08-01T04:09:13.757Z,85.30
2022-08-01T04:10:12.263Z,85.10
2022-08-01T04:11:12.315Z,85.10
2022-08-01T04:12:12.699Z,85.20
2022-08-01T04:13:12.266Z,85.40
2022-08-01T04:14:12.335Z,85.10
2022-08-01T04:15:12.231Z,85.50
2022-08-01T04:16:12.194Z,86.10
2022-08-01T04:17:12.218Z,86.21
2022-08-01T04:18:12.204Z,86.41
2022-08-01T04:19:12.228Z,87.21
2022-08-01T04:20:12.160Z,87.01
2022-08-01T04:21:12.276Z,86.81
2022-08-01T04:22:12.232Z,86.61
2022-08-01T04:23:12.159Z,86.61
2022-08-01T04:24:12.208Z,86.71
2022-08-01T04:25:12.189Z,86.41
2022-08-01T04:26:12.176Z,85.56
2022-08-01T04:27:12.072Z,84.91
2022-08-01T04:28:12.198Z,83.97
2022-08-01T04:29:12.078Z,82.78
2022-08-01T04:30:12.035Z,81.74
2022-08-01T04:31:13.031Z,81.00
2022-08-01T04:32:12.043Z,79.92
2022-08-01T04:33:12.054Z,78.48
2022-08-01T04:34:12.066Z,77.04
2022-08-01T04:35:57.722Z,75.90
2022-08-01T04:36:12.984Z,75.70
2022-08-01T04:37:13.160Z,75.67
2022-08-01T04:38:11.996Z,75.67
2022-08-01T04:39:11.984Z,75.80
2022-08-01T04:40:12.010Z,76.80
2022-08-01T04:41:11.926Z,76.00
2022-08-01T04:42:11.915Z,75.90
2022-08-01T04:43:13.630Z,75.90
2022-08-01T04:44:11.938Z,77.40
2022-08-01T04:45:11.873Z,77.60
2022-08-01T04:46:11.879Z,77.70
2022-08-01T04:47:11.876Z,76.64
2022-08-01T04:48:11.842Z,77.14
2022-08-01T04:49:11.890Z,77.14
2022-08-01T04:50:11.822Z,78.48
2022-08-01T04:51:11.815Z,76.87
2022-08-01T04:52:16.873Z,78.58
2022-08-01T04:53:12.808Z,78.48
2022-08-01T04:54:11.826Z,78.18
2022-08-01T04:55:11.786Z,79.68
2022-08-01T04:56:11.745Z,79.98
2022-08-01T04:57:11.775Z,79.18
2022-08-01T04:58:15.038Z,79.28
2022-08-01T04:59:15.571Z,77.84
2022-08-01T05:00:12.710Z,78.04
2022-08-01T05:01:11.803Z,78.04
2022-08-01T05:02:11.705Z,79.04
2022-08-01T05:03:11.694Z,79.50
2022-08-01T05:04:11.681Z,78.60
2022-08-01T05:05:11.654Z,78.00
2022-08-01T05:06:11.666Z,77.20
2022-08-01T05:07:11.646Z,77.50
2022-08-01T05:08:11.622Z,77.50
2022-08-01T05:09:11.656Z,80.17
2022-08-01T05:10:11.620Z,78.06
2022-08-01T05:11:11.599Z,77.76
2022-08-01T05:12:11.580Z,74.89
2022-08-01T05:13:11.582Z,74.82
2022-08-01T05:14:11.594Z,72.55
2022-08-01T05:15:15.372Z,72.19
2022-08-01T05:16:11.544Z,68.93
2022-08-01T05:17:11.544Z,69.16
2022-08-01T05:18:11.505Z,68.10
2022-08-01T05:19:11.535Z,65.39
2022-08-01T05:20:11.483Z,63.67
2022-08-01T05:21:15.923Z,62.74
2022-08-01T05:22:11.481Z,62.88
2022-08-01T05:23:20.606Z,65.62
2022-08-01T05:24:12.480Z,59.75
2022-08-01T05:25:12.251Z,59.48
2022-08-01T05:26:11.412Z,63.34
2022-08-01T05:27:12.236Z,63.10
2022-08-01T05:28:11.413Z,64.32
2022-08-01T05:29:11.447Z,65.35
2022-08-01T05:30:11.427Z,65.81
2022-08-01T05:31:11.398Z,67.24
2022-08-01T05:32:11.373Z,68.13
2022-08-01T05:33:11.337Z,67.86
2022-08-01T05:34:15.036Z,69.56
2022-08-01T05:35:11.315Z,69.49
2022-08-01T05:36:11.306Z,70.62
2022-08-01T05:37:11.301Z,70.32
2022-08-01T05:38:14.161Z,71.32
2022-08-01T05:39:11.316Z,72.32
2022-08-01T05:40:11.265Z,72.25
2022-08-01T05:41:11.249Z,70.65
2022-08-01T05:42:11.237Z,71.15
2022-08-01T05:43:11.242Z,71.56
2022-08-01T05:44:11.266Z,71.06
2022-08-01T05:45:11.232Z,72.16
2022-08-01T05:46:11.283Z,70.86
2022-08-01T05:47:11.219Z,71.26
2022-08-01T05:48:11.205Z,72.65
2022-08-01T05:49:11.247Z,71.56
2022-08-01T05:50:11.151Z,71.75
2022-08-01T05:51:11.155Z,73.49
2022-08-01T05:52:11.129Z,73.28
2022-08-01T05:53:11.138Z,73.39
2022-08-01T05:54:11.137Z,74.05
2022-08-01T05:55:11.225Z,72.99
2022-08-01T05:56:11.161Z,72.85
2022-08-01T05:57:11.152Z,72.39
2022-08-01T05:58:12.443Z,73.75
2022-08-01T05:59:11.092Z,73.58
2022-08-01T06:00:11.033Z,72.59
2022-08-01T06:01:11.165Z,73.69
2022-08-01T06:02:11.359Z,73.99
2022-08-01T06:03:11.106Z,73.28
2022-08-01T06:04:11.048Z,76.38
2022-08-01T06:05:13.217Z,73.99
2022-08-01T06:06:10.978Z,75.82
2022-08-01T06:07:10.972Z,74.92
2022-08-01T06:08:10.955Z,75.76
2022-08-01T06:09:10.990Z,77.42
2022-08-01T06:10:10.930Z,77.66
2022-08-01T06:11:10.962Z,76.95
2022-08-01T06:12:10.930Z,76.26
2022-08-01T06:13:10.914Z,75.76
2022-08-01T06:14:10.935Z,75.92
2022-08-01T06:15:10.893Z,75.52
2022-08-01T06:16:10.848Z,75.32
2022-08-01T06:17:10.862Z,76.72
2022-08-01T06:18:10.848Z,76.38
2022-08-01T06:19:10.886Z,76.48
2022-08-01T06:20:10.824Z,77.68
2022-08-01T06:21:10.827Z,75.68
2022-08-01T06:22:10.897Z,77.14
2022-08-01T06:23:31.105Z,75.85
2022-08-01T06:24:11.935Z,75.11
2022-08-01T06:25:10.763Z,74.02
2022-08-01T06:26:10.743Z,73.75
2022-08-01T06:27:21.483Z,74.95
2022-08-01T06:28:11.751Z,74.65
2022-08-01T06:29:10.910Z,75.74
2022-08-01T06:30:10.685Z,75.85
2022-08-01T06:31:10.806Z,75.74
2022-08-01T06:32:10.774Z,76.04
2022-08-01T06:33:11.750Z,75.48
2022-08-01T06:34:10.716Z,75.78
2022-08-01T06:35:10.668Z,75.74
2022-08-01T06:36:10.722Z,75.25
2022-08-01T06:37:10.635Z,77.11
2022-08-01T06:38:10.697Z,74.51
2022-08-01T06:39:10.723Z,75.67
2022-08-01T06:40:16.263Z,73.68
2022-08-01T06:41:11.701Z,73.18
2022-08-01T06:42:10.664Z,73.18
2022-08-01T06:43:10.577Z,74.44
2022-08-01T06:44:10.665Z,74.28
2022-08-01T06:45:10.552Z,74.28
2022-08-01T06:46:10.565Z,74.88
2022-08-01T06:47:10.538Z,73.58
2022-08-01T06:48:10.525Z,74.48
2022-08-01T06:49:10.761Z,73.38
2022-08-01T06:50:11.276Z,73.48
2022-08-01T06:51:10.582Z,74.58
2022-08-01T06:52:10.838Z,74.28
2022-08-01T06:53:10.451Z,73.18
2022-08-01T06:54:10.566Z,74.28
2022-08-01T06:55:10.524Z,74.88
2022-08-01T06:56:10.404Z,73.58
2022-08-01T06:57:10.503Z,73.88
2022-08-01T06:58:10.416Z,73.35
2022-08-01T06:59:10.517Z,75.44
2022-08-01T07:00:10.365Z,74.51
2022-08-01T07:01:10.466Z,72.71
2022-08-01T07:02:10.467Z,72.61
2022-08-01T07:03:10.348Z,72.35
2022-08-01T07:04:10.356Z,72.65
2022-08-01T07:05:10.412Z,73.65
2022-08-01T07:06:10.438Z,73.14
2022-08-01T07:07:10.364Z,73.21
2022-08-01T07:08:10.304Z,72.91
2022-08-01T07:09:14.073Z,72.91
2022-08-01T07:10:10.331Z,72.41
2022-08-01T07:11:10.302Z,73.41
2022-08-01T07:12:10.264Z,73.55
2022-08-01T07:13:10.235Z,73.61
2022-08-01T07:14:10.255Z,72.81
2022-08-01T07:15:10.210Z,72.68
2022-08-01T07:16:10.207Z,73.54
2022-08-01T07:17:10.213Z,72.14
2022-08-01T07:18:10.206Z,72.64
2022-08-01T07:19:10.259Z,72.25
2022-08-01T07:20:10.540Z,73.34
2022-08-01T07:21:39.087Z,73.04
2022-08-01T07:22:11.145Z,72.68
2022-08-01T07:23:10.196Z,74.51
2022-08-01T07:24:13.315Z,74.17
2022-08-01T07:25:10.127Z,73.97
2022-08-01T07:26:10.105Z,72.48
2022-08-01T07:27:23.024Z,75.40
2022-08-01T07:28:11.087Z,74.86
2022-08-01T07:29:10.088Z,70.36
2022-08-01T07:30:10.020Z,70.72
2022-08-01T07:31:10.044Z,69.59
2022-08-01T07:32:10.059Z,68.10
2022-08-01T07:33:10.022Z,67.50
2022-08-01T07:34:10.073Z,70.32
2022-08-01T07:35:10.026Z,68.23
2022-08-01T07:36:09.992Z,71.22
2022-08-01T07:37:09.976Z,69.23
2022-08-01T07:38:12.792Z,68.90
2022-08-01T07:39:10.002Z,69.76
2022-08-01T07:40:09.938Z,69.32
2022-08-01T07:41:10.013Z,67.34
2022-08-01T07:42:10.068Z,68.07
2022-08-01T07:43:09.909Z,68.17
2022-08-01T07:44:09.941Z,69.06
2022-08-01T07:45:09.890Z,67.71
2022-08-01T07:46:09.887Z,69.23
2022-08-01T07:47:09.862Z,70.15
2022-08-01T07:48:09.853Z,70.45
2022-08-01T07:49:09.933Z,70.29
2022-08-01T07:50:09.871Z,70.92
2022-08-01T07:51:09.853Z,72.74
2022-08-01T07:52:09.815Z,72.38
2022-08-01T07:53:09.807Z,74.43
2022-08-01T07:54:09.837Z,72.31
2022-08-01T07:55:09.791Z,71.64
2022-08-01T07:56:09.783Z,71.08
2022-08-01T07:57:09.749Z,69.03
2022-08-01T07:58:09.750Z,67.97
2022-08-01T07:59:09.781Z,66.02
2022-08-01T08:00:09.720Z,63.82
2022-08-01T08:01:09.716Z,62.87
2022-08-01T08:02:10.244Z,62.41
2022-08-01T08:03:09.701Z,61.85
2022-08-01T08:04:09.707Z,61.30
2022-08-01T08:05:09.723Z,57.97
2022-08-01T08:06:09.674Z,55.48
2022-08-01T08:07:10.028Z,58.14
2022-08-01T08:08:09.654Z,58.25
2022-08-01T08:09:09.618Z,59.39
2022-08-01T08:10:09.670Z,61.05
2022-08-01T08:11:09.591Z,62.13
2022-08-01T08:12:09.872Z,64.40
2022-08-01T08:13:09.580Z,64.90
2022-08-01T08:14:09.590Z,65.82
2022-08-01T08:15:09.607Z,66.82
2022-08-01T08:16:09.556Z,68.30
2022-08-01T08:17:09.552Z,66.61
2022-08-01T08:18:09.512Z,66.52
2022-08-01T08:19:09.510Z,66.12
2022-08-01T08:20:09.538Z,66.02
2022-08-01T08:21:09.491Z,65.06
2022-08-01T08:22:09.913Z,64.87
2022-08-01T08:23:09.483Z,64.41
2022-08-01T08:24:09.446Z,62.70
2022-08-01T08:25:09.468Z,65.30
2022-08-01T08:26:09.434Z,62.12
2022-08-01T08:27:09.421Z,60.76
2022-08-01T08:28:09.407Z,61.82
2022-08-01T08:29:09.421Z,61.72
2022-08-01T08:30:09.490Z,62.14
2022-08-01T08:31:25.273Z,63.56
2022-08-01T08:32:10.804Z,63.68
2022-08-01T08:33:13.716Z,62.50
2022-08-01T08:34:09.360Z,62.73
2022-08-01T08:35:09.371Z,64.57
2022-08-01T08:36:09.333Z,64.90
2022-08-01T08:37:09.515Z,66.25
2022-08-01T08:38:09.414Z,67.47
2022-08-01T08:39:09.310Z,68.60
2022-08-01T08:40:09.342Z,68.53
2022-08-01T08:41:09.364Z,69.16
2022-08-01T08:42:09.515Z,69.09
2022-08-01T08:43:09.285Z,70.22
2022-08-01T08:44:10.566Z,71.42
2022-08-01T08:45:12.076Z,71.61
2022-08-01T08:46:09.223Z,70.92
2022-08-01T08:47:09.458Z,71.55
2022-08-01T08:48:09.226Z,72.88
2022-08-01T08:49:09.338Z,73.08
2022-08-01T08:50:09.249Z,73.97
2022-08-01T08:51:09.186Z,73.08
2022-08-01T08:52:09.466Z,74.11
2022-08-01T08:53:09.140Z,75.01
2022-08-01T08:54:09.242Z,74.90
2022-08-01T08:55:09.280Z,74.74
2022-08-01T08:56:09.126Z,75.40
2022-08-01T08:57:09.102Z,74.94
2022-08-01T08:58:09.195Z,75.14
2022-08-01T08:59:09.159Z,74.84
2022-08-01T09:00:09.137Z,76.34
2022-08-01T09:01:09.180Z,76.64
2022-08-01T09:02:09.395Z,76.20
2022-08-01T09:03:09.097Z,75.10
2022-08-01T09:04:09.041Z,76.20
2022-08-01T09:05:09.058Z,75.37
2022-08-01T09:06:09.063Z,74.07
2022-08-01T09:07:08.989Z,73.28
2022-08-01T09:08:09.083Z,74.24
2022-08-01T09:09:08.975Z,72.71
2022-08-01T09:10:09.094Z,73.37
2022-08-01T09:11:09.055Z,71.45
2022-08-01T09:12:09.274Z,70.65
2022-08-01T09:13:08.933Z,70.09
2022-08-01T09:14:08.935Z,69.49
2022-08-01T09:15:08.939Z,69.59
2022-08-01T09:16:09.030Z,68.96
2022-08-01T09:17:08.970Z,69.13
2022-08-01T09:18:08.888Z,67.38
2022-08-01T09:19:08.897Z,68.86
2022-08-01T09:20:09.921Z,67.18
2022-08-01T09:21:08.860Z,68.17
2022-08-01T09:22:09.386Z,67.60
2022-08-01T09:23:08.842Z,68.80
2022-08-01T09:24:08.798Z,67.80
2022-08-01T09:25:08.962Z,68.30
2022-08-01T09:26:08.913Z,68.50
2022-08-01T09:27:08.795Z,68.07
2022-08-01T09:28:08.868Z,71.41
2022-08-01T09:29:08.795Z,67.01
2022-08-01T09:30:08.770Z,69.39
2022-08-01T09:31:08.878Z,65.20
2022-08-01T09:32:16.200Z,66.09
2022-08-01T09:33:17.912Z,66.39
2022-08-01T09:34:09.818Z,62.21
2022-08-01T09:35:08.692Z,59.48
2022-08-01T09:36:08.800Z,61.50
2022-08-01T09:37:09.067Z,59.11
2022-08-01T09:38:08.704Z,61.08
2022-08-01T09:39:08.704Z,58.95
2022-08-01T09:40:08.625Z,57.37
2022-08-01T09:41:08.671Z,56.59
2022-08-01T09:42:08.646Z,60.03
2022-08-01T09:43:08.592Z,56.00
2022-08-01T09:44:08.701Z,57.63
2022-08-01T09:45:08.593Z,59.33
2022-08-01T09:46:12.681Z,56.34
2022-08-01T09:47:08.675Z,55.20
2022-08-01T09:48:10.766Z,56.73
2022-08-01T09:49:10.914Z,58.11
2022-08-01T09:50:11.137Z,55.08
2022-08-01T09:51:09.845Z,55.66
2022-08-01T09:52:08.513Z,57.61
2022-08-01T09:53:08.510Z,60.18
2022-08-01T09:54:08.545Z,60.11
2022-08-01T09:55:08.488Z,59.69
2022-08-01T09:56:08.517Z,59.72
2022-08-01T09:57:08.718Z,57.63
2022-08-01T09:58:08.453Z,58.15
2022-08-01T09:59:08.425Z,57.78
2022-08-01T10:00:09.954Z,59.29
2022-08-01T10:01:08.510Z,60.07
2022-08-01T10:02:08.405Z,62.24
2022-08-01T10:03:10.222Z,62.04
2022-08-01T10:04:09.914Z,60.86
2022-08-01T10:05:08.949Z,61.48
2022-08-01T10:06:08.390Z,62.07
2022-08-01T10:07:08.800Z,62.30
2022-08-01T10:08:08.371Z,63.06
2022-08-01T10:09:08.357Z,63.85
2022-08-01T10:10:08.366Z,64.25
2022-08-01T10:11:08.361Z,63.49
2022-08-01T10:12:08.675Z,63.75
2022-08-01T10:13:09.878Z,65.06
2022-08-01T10:14:08.429Z,65.66
2022-08-01T10:15:08.286Z,65.69
2022-08-01T10:16:08.257Z,67.14
2022-08-01T10:17:08.501Z,66.25
2022-08-01T10:18:16.795Z,65.47
2022-08-01T10:19:14.499Z,62.48
2022-08-01T10:20:21.572Z,60.82
2022-08-01T10:21:10.921Z,58.76
2022-08-01T10:22:08.189Z,56.55
2022-08-01T10:23:08.181Z,56.10
2022-08-01T10:24:08.183Z,53.03
2022-08-01T10:25:08.160Z,54.70
2022-08-01T10:26:08.202Z,52.59
2022-08-01T10:27:09.411Z,51.12
2022-08-01T10:28:08.177Z,49.73
2022-08-01T10:29:24.305Z,50.83
2022-08-01T10:30:19.704Z,50.37
2022-08-01T10:31:12.586Z,53.40
2022-08-01T10:32:09.156Z,50.51
2022-08-01T10:33:08.101Z,49.43
2022-08-01T10:34:08.088Z,51.91
2022-08-01T10:35:15.371Z,55.45
2022-08-01T10:36:09.039Z,56.71
2022-08-01T10:37:08.603Z,59.94
2022-08-01T10:38:13.492Z,64.24
2022-08-01T10:39:09.015Z,75.68
2022-08-01T10:40:29.252Z,83.61
2022-08-01T10:41:09.228Z,87.27
2022-08-01T10:42:10.867Z,90.63
2022-08-01T10:43:08.989Z,96.73
2022-08-01T10:44:07.963Z,98.82
2022-08-01T10:45:07.947Z,99.99
2022-08-01T10:46:07.938Z,99.99
2022-08-01T10:47:09.899Z,99.99
2022-08-01T10:48:07.933Z,99.99
2022-08-01T10:49:07.961Z,99.99
2022-08-01T10:50:07.949Z,99.99
2022-08-01T10:51:17.743Z,99.99
2022-08-01T10:52:08.927Z,99.99
2022-08-01T10:53:16.280Z,99.99
2022-08-01T10:54:09.747Z,99.99
2022-08-01T10:55:07.898Z,99.99
2022-08-01T10:56:07.868Z,99.99
2022-08-01T10:57:08.244Z,99.99
2022-08-01T10:58:07.818Z,99.99
2022-08-01T10:59:11.691Z,99.99
2022-08-01T11:00:07.803Z,99.99
2022-08-01T11:01:07.834Z,99.99
2022-08-01T11:02:07.778Z,99.99
2022-08-01T11:03:07.742Z,99.99
2022-08-01T11:04:09.657Z,99.99
2022-08-01T11:05:09.579Z,99.99
2022-08-01T11:06:08.376Z,99.99
2022-08-01T11:07:10.171Z,99.99
2022-08-01T11:08:07.704Z,99.99
2022-08-01T11:09:07.682Z,99.99
2022-08-01T11:10:14.722Z,99.99
2022-08-01T11:11:08.675Z,99.99
2022-08-01T11:12:07.779Z,99.99
2022-08-01T11:13:07.638Z,99.99
2022-08-01T11:14:07.628Z,99.99
2022-08-01T11:15:07.611Z,99.99
2022-08-01T11:16:16.417Z,99.99
2022-08-01T11:17:09.025Z,99.99
2022-08-01T11:18:07.665Z,99.99
2022-08-01T11:19:07.589Z,99.99
2022-08-01T11:20:07.803Z,99.99
2022-08-01T11:21:58.250Z,99.99
2022-08-01T11:22:08.608Z,99.99
2022-08-01T11:23:07.546Z,99.99
2022-08-01T11:24:07.530Z,99.99
2022-08-01T11:25:07.495Z,99.99
2022-08-01T11:26:10.278Z,99.99
2022-08-01T11:27:07.892Z,99.98
2022-08-01T11:28:08.804Z,99.78
2022-08-01T11:29:20.032Z,99.84
2022-08-01T11:30:08.453Z,99.88
2022-08-01T11:31:07.785Z,99.49
2022-08-01T11:32:07.501Z,97.78
2022-08-01T11:33:11.420Z,98.68
2022-08-01T11:34:07.453Z,99.33
2022-08-01T11:35:07.395Z,97.89
2022-08-01T11:36:07.500Z,97.69
2022-08-01T11:37:07.404Z,97.39
2022-08-01T11:38:07.382Z,98.19
2022-08-01T11:39:13.068Z,97.55
2022-08-01T11:40:08.348Z,95.30
2022-08-01T11:41:07.437Z,93.96
2022-08-01T11:42:07.344Z,96.41
2022-08-01T11:43:07.375Z,94.21
2022-08-01T11:44:07.315Z,93.91
2022-08-01T11:45:07.284Z,92.11
2022-08-01T11:46:07.380Z,91.72
2022-08-01T11:47:09.707Z,93.66
2022-08-01T11:48:07.331Z,93.12
2022-08-01T11:49:07.273Z,92.68
2022-08-01T11:50:07.244Z,88.10
2022-08-01T11:51:07.323Z,91.09
2022-08-01T11:52:07.253Z,84.53
2022-08-01T11:53:07.264Z,87.32
2022-08-01T11:54:07.199Z,87.57
2022-08-01T11:55:10.483Z,85.62
2022-08-01T11:56:07.208Z,88.31
2022-08-01T11:57:07.563Z,88.42
2022-08-01T11:58:07.188Z,84.25
2022-08-01T11:59:07.160Z,84.64
2022-08-01T12:00:08.855Z,85.50
2022-08-01T12:01:07.124Z,84.03
2022-08-01T12:02:07.153Z,87.32
2022-08-01T12:03:07.588Z,83.21
2022-08-01T12:04:07.099Z,81.86
2022-08-01T12:05:08.446Z,82.26
2022-08-01T12:06:07.050Z,80.57
2022-08-01T12:07:07.330Z,81.98
2022-08-01T12:08:07.094Z,77.15
2022-08-01T12:09:10.474Z,80.85
2022-08-01T12:10:08.100Z,81.05
2022-08-01T12:11:07.306Z,75.54
2022-08-01T12:12:07.004Z,77.92
2022-08-01T12:13:07.016Z,79.08
2022-08-01T12:14:06.990Z,79.85
2022-08-01T12:15:06.975Z,79.69
2022-08-01T12:16:06.976Z,81.29
2022-08-01T12:17:07.304Z,81.48
2022-08-01T12:18:06.961Z,82.48
2022-08-01T12:19:06.995Z,79.63
2022-08-01T12:20:06.915Z,81.66
2022-08-01T12:21:06.916Z,80.11
2022-08-01T12:22:06.877Z,81.01
2022-08-01T12:23:06.958Z,82.73
2022-08-01T12:24:06.896Z,81.54
2022-08-01T12:25:06.885Z,84.53
2022-08-01T12:26:06.847Z,84.17
2022-08-01T12:27:07.251Z,85.96
2022-08-01T12:28:06.880Z,82.62
2022-08-01T12:29:06.812Z,84.25
2022-08-01T12:30:06.810Z,85.44
2022-08-01T12:31:06.797Z,86.54
2022-08-01T12:32:06.788Z,86.10
2022-08-01T12:33:06.818Z,85.94
2022-08-01T12:34:06.769Z,85.64
2022-08-01T12:35:06.774Z,85.64
2022-08-01T12:36:06.760Z,87.70
2022-08-01T12:37:07.138Z,86.06
2022-08-01T12:38:06.760Z,82.28
2022-08-01T12:39:06.737Z,82.67
2022-08-01T12:40:06.702Z,82.34
2022-08-01T12:41:06.724Z,84.15
2022-08-01T12:42:06.693Z,83.57
2022-08-01T12:43:06.734Z,79.10
2022-08-01T12:44:06.670Z,78.17
2022-08-01T12:45:06.654Z,78.63
2022-08-01T12:46:06.636Z,79.18
2022-08-01T12:47:06.987Z,75.51
2022-08-01T12:48:06.595Z,76.50
2022-08-01T12:49:06.596Z,77.56
2022-08-01T12:50:06.574Z,77.82
2022-08-01T12:51:06.567Z,75.80
2022-08-01T12:52:10.225Z,77.34